createdAt,value
2017-01-16T00:00:08.009Z,2.58
2017-01-16T00:01:18.340Z,2.54
2017-01-16T00:02:28.686Z,2.47
2017-01-16T00:03:39.439Z,2.49
2017-01-16T00:04:50.189Z,2.52
2017-01-16T00:06:00.563Z,2.55
2017-01-16T00:07:11.374Z,2.47
2017-01-16T00:08:22.130Z,2.45
2017-01-16T00:09:32.482Z,2.48
2017-01-16T00:10:42.833Z,2.45
2017-01-16T00:11:53.570Z,2.48
2017-01-16T00:13:03.920Z,2.49
2017-01-16T00:14:14.668Z,2.45
2017-01-16T00:15:25.016Z,2.45
2017-01-16T00:16:35.766Z,2.42
2017-01-16T00:17:45.728Z,2.45
2017-01-16T00:18:55.693Z,2.44
2017-01-16T00:20:06.048Z,2.51
2017-01-16T00:21:16.414Z,2.41
2017-01-16T00:22:27.160Z,2.41
2017-01-16T00:23:37.533Z,2.47
2017-01-16T00:24:47.874Z,2.34
2017-01-16T00:25:58.219Z,2.41
2017-01-16T00:27:08.966Z,2.4
2017-01-16T00:28:19.322Z,2.45
2017-01-16T00:29:29.660Z,2.44
2017-01-16T00:30:40.431Z,2.34
2017-01-16T00:31:50.772Z,2.34
2017-01-16T00:33:01.120Z,2.42
2017-01-16T00:34:11.071Z,2.34
2017-01-16T00:35:21.828Z,2.29
2017-01-16T00:36:31.775Z,2.3
2017-01-16T00:37:41.733Z,2.29
2017-01-16T00:38:52.473Z,2.3
2017-01-16T00:40:03.210Z,2.3
2017-01-16T00:41:13.992Z,2.29
2017-01-16T00:42:24.349Z,2.24
2017-01-16T00:43:34.681Z,2.16
2017-01-16T00:44:45.087Z,2.22
2017-01-16T00:45:55.045Z,2.18
2017-01-16T00:47:05.375Z,2.12
2017-01-16T00:48:15.331Z,2.13
2017-01-16T00:49:25.679Z,2.12
2017-01-16T00:50:36.016Z,2.23
2017-01-16T00:51:46.366Z,2.18
2017-01-16T00:52:57.094Z,2.15
2017-01-16T00:54:07.846Z,2.18
2017-01-16T00:55:17.804Z,2.12
2017-01-16T00:56:28.543Z,2.15
2017-01-16T00:57:38.885Z,2.11
2017-01-16T00:58:48.846Z,2.22
2017-01-16T00:59:58.816Z,2.12
2017-01-16T01:01:09.155Z,2.26
2017-01-16T01:02:19.932Z,2.18
2017-01-16T01:03:30.273Z,2.27
2017-01-16T01:04:40.226Z,2.18
2017-01-16T01:05:50.971Z,2.22
2017-01-16T01:07:01.713Z,2.29
2017-01-16T01:08:11.664Z,2.24
2017-01-16T01:09:22.402Z,2.29
2017-01-16T01:10:32.413Z,2.33
2017-01-16T01:11:43.170Z,2.36
2017-01-16T01:12:53.907Z,2.34
2017-01-16T01:14:04.248Z,2.38
2017-01-16T01:15:14.595Z,2.29
2017-01-16T01:16:24.956Z,2.31
2017-01-16T01:17:35.695Z,2.36
2017-01-16T01:18:46.435Z,2.3
2017-01-16T01:19:56.781Z,2.36
2017-01-16T01:21:06.324Z,2.38
2017-01-16T01:22:17.065Z,2.36
2017-01-16T01:23:27.824Z,2.34
2017-01-16T01:24:37.769Z,2.29
2017-01-16T01:25:48.505Z,2.3
2017-01-16T01:26:59.243Z,2.29
2017-01-16T01:28:10.018Z,2.33
2017-01-16T01:29:20.746Z,2.3
2017-01-16T01:30:30.716Z,2.22
2017-01-16T01:31:41.450Z,2.3
2017-01-16T01:32:52.231Z,2.22
2017-01-16T01:34:01.782Z,2.27
2017-01-16T01:35:12.128Z,2.16
2017-01-16T01:36:22.472Z,2.13
2017-01-16T01:37:32.823Z,2.22
2017-01-16T01:38:41.985Z,2.15
2017-01-16T01:39:52.736Z,2.16
2017-01-16T01:41:03.097Z,2.13
2017-01-16T01:42:13.451Z,2.06
2017-01-16T01:43:23.855Z,2.09
2017-01-16T01:44:34.192Z,2.09
2017-01-16T01:45:44.576Z,2.08
2017-01-16T01:46:54.920Z,2.08
2017-01-16T01:48:05.656Z,2.05
2017-01-16T01:49:16.387Z,2.04
2017-01-16T01:50:27.126Z,2.06
2017-01-16T01:51:37.472Z,1.97
2017-01-16T01:52:47.819Z,2.09
2017-01-16T01:53:58.555Z,2.04
2017-01-16T01:55:09.326Z,2.05
2017-01-16T01:56:19.678Z,2.02
2017-01-16T01:57:30.451Z,1.97
2017-01-16T01:58:40.396Z,1.98
2017-01-16T01:59:50.735Z,2.02
2017-01-16T02:01:01.092Z,1.97
2017-01-16T02:02:11.464Z,1.92
2017-01-16T02:03:22.195Z,1.92
2017-01-16T02:04:32.526Z,1.83
2017-01-16T02:05:43.253Z,1.79
2017-01-16T02:06:53.997Z,1.84
2017-01-16T02:08:04.346Z,1.79
2017-01-16T02:09:15.078Z,1.87
2017-01-16T02:10:25.820Z,1.87
2017-01-16T02:11:36.543Z,1.82
2017-01-16T02:12:46.498Z,1.82
2017-01-16T02:13:57.244Z,1.94
2017-01-16T02:15:08.033Z,1.89
2017-01-16T02:16:17.983Z,1.92
2017-01-16T02:17:28.741Z,1.84
2017-01-16T02:18:39.098Z,1.83
2017-01-16T02:19:49.459Z,1.82
2017-01-16T02:21:00.209Z,1.84
2017-01-16T02:22:10.571Z,1.82
2017-01-16T02:23:20.907Z,1.84
2017-01-16T02:24:31.254Z,1.84
2017-01-16T02:25:41.203Z,1.82
2017-01-16T02:26:51.543Z,1.83
2017-01-16T02:28:02.288Z,1.82
2017-01-16T02:29:12.632Z,1.72
2017-01-16T02:30:22.973Z,1.76
2017-01-16T02:31:33.309Z,1.79
2017-01-16T02:32:44.056Z,1.79
2017-01-16T02:33:54.788Z,1.78
2017-01-16T02:35:05.544Z,1.76
2017-01-16T02:36:16.281Z,1.76
2017-01-16T02:37:27.033Z,1.74
2017-01-16T02:38:37.773Z,1.76
2017-01-16T02:39:48.531Z,1.71
2017-01-16T02:40:59.278Z,1.74
2017-01-16T02:42:10.045Z,1.75
2017-01-16T02:43:20.382Z,1.74
2017-01-16T02:44:30.726Z,1.71
2017-01-16T02:45:41.085Z,1.84
2017-01-16T02:46:51.438Z,1.69
2017-01-16T02:48:01.811Z,1.72
2017-01-16T02:49:12.151Z,1.66
2017-01-16T02:50:22.883Z,1.84
2017-01-16T02:51:32.863Z,1.79
2017-01-16T02:52:43.897Z,1.87
2017-01-16T02:53:54.713Z,1.83
2017-01-16T02:55:05.479Z,1.74
2017-01-16T02:56:15.431Z,1.78
2017-01-16T02:57:25.772Z,1.82
2017-01-16T02:58:35.721Z,1.84
2017-01-16T02:59:46.452Z,1.72
2017-01-16T03:00:56.796Z,1.86
2017-01-16T03:02:07.140Z,1.75
2017-01-16T03:33:23.460Z,-2.24
2017-01-16T03:34:34.187Z,-2.3
2017-01-16T03:35:44.128Z,-2.37
2017-01-16T03:36:54.884Z,-2.23
2017-01-16T03:38:05.637Z,-2.1
2017-01-16T03:39:16.439Z,-2.1
2017-01-16T03:40:26.772Z,-1.89
2017-01-16T03:41:37.513Z,-1.78
2017-01-16T03:42:48.250Z,-1.7
2017-01-16T03:43:58.592Z,-1.5
2017-01-16T03:45:09.337Z,-1.34
2017-01-16T03:46:19.722Z,-1.17
2017-01-16T03:47:30.492Z,-1.03
2017-01-16T03:48:40.843Z,-0.89
2017-01-16T03:49:51.186Z,-0.64
2017-01-16T03:51:01.933Z,-0.61
2017-01-16T03:52:12.269Z,-0.38
2017-01-16T03:53:23.010Z,-0.37
2017-01-16T03:54:33.607Z,-0.23
2017-01-16T03:55:42.373Z,-0.04
2017-01-16T03:56:52.323Z,0.08
2017-01-16T03:58:02.277Z,0.14
2017-01-16T03:59:13.015Z,0.2
2017-01-16T04:00:23.750Z,0.35
2017-01-16T04:01:34.496Z,0.39
2017-01-16T04:02:45.233Z,0.47
2017-01-16T04:03:55.590Z,0.5
2017-01-16T04:05:06.338Z,0.61
2017-01-16T04:06:17.069Z,0.6
2017-01-16T04:07:27.425Z,0.64
2017-01-16T04:08:37.454Z,0.74
2017-01-16T04:09:47.799Z,0.82
2017-01-16T04:10:58.142Z,0.82
2017-01-16T04:12:08.083Z,0.9
2017-01-16T04:13:18.814Z,0.93
2017-01-16T04:14:28.806Z,0.96
2017-01-16T04:15:38.767Z,1.02
2017-01-16T04:16:49.508Z,1.03
2017-01-16T04:17:59.857Z,1
2017-01-16T04:19:10.198Z,1.04
2017-01-16T04:20:20.162Z,1.02
2017-01-16T04:21:30.106Z,1.02
2017-01-16T04:22:40.832Z,1.03
2017-01-16T04:23:50.786Z,1.02
2017-01-16T04:25:01.134Z,1.04
2017-01-16T04:26:11.889Z,1.17
2017-01-16T04:27:21.836Z,1.1
2017-01-16T04:28:32.621Z,1.08
2017-01-16T04:29:42.569Z,1.04
2017-01-16T04:30:52.959Z,1.1
2017-01-16T04:32:02.506Z,1.12
2017-01-16T04:33:13.252Z,1.03
2017-01-16T04:34:23.995Z,1.14
2017-01-16T04:35:34.726Z,1.1
2017-01-16T04:36:45.528Z,1.08
2017-01-16T04:37:56.261Z,1.14
2017-01-16T04:39:07.027Z,1.02
2017-01-16T04:40:17.775Z,1.02
2017-01-16T04:41:28.525Z,0.97
2017-01-16T04:42:39.252Z,1.04
2017-01-16T04:43:49.994Z,0.97
2017-01-16T04:45:00.351Z,1.04
2017-01-16T04:46:10.702Z,1.08
2017-01-16T04:47:21.043Z,1.03
2017-01-16T04:48:30.990Z,0.99
2017-01-16T04:49:41.731Z,0.97
2017-01-16T04:50:52.222Z,1.02
2017-01-16T04:52:02.294Z,1.08
2017-01-16T04:53:13.111Z,1.07
2017-01-16T04:54:23.899Z,1.03
2017-01-16T04:55:33.888Z,1.04
2017-01-16T04:56:44.288Z,1.02
2017-01-16T04:57:55.082Z,0.97
2017-01-16T04:59:05.879Z,0.99
2017-01-16T05:00:16.682Z,0.99
2017-01-16T05:01:26.682Z,0.94
2017-01-16T05:02:36.675Z,0.97
2017-01-16T05:03:47.083Z,0.92
2017-01-16T05:04:57.872Z,0.92
2017-01-16T05:06:08.719Z,0.96
2017-01-16T05:07:19.542Z,0.86
2017-01-16T05:08:30.329Z,0.89
2017-01-16T05:09:40.731Z,0.84
2017-01-16T05:10:51.530Z,0.86
2017-01-16T05:12:02.342Z,0.9
2017-01-16T05:13:12.797Z,0.9
2017-01-16T05:14:23.692Z,0.94
2017-01-16T05:15:34.143Z,0.85
2017-01-16T05:16:45.025Z,0.89
2017-01-16T05:17:55.891Z,0.92
2017-01-16T05:19:06.355Z,0.89
2017-01-16T05:20:16.786Z,0.89
2017-01-16T05:21:26.782Z,0.82
2017-01-16T05:22:37.575Z,0.9
2017-01-16T05:23:47.975Z,0.86
2017-01-16T05:24:57.966Z,0.84
2017-01-16T05:26:08.747Z,0.86
2017-01-16T05:27:19.555Z,0.82
2017-01-16T05:28:29.949Z,0.84
2017-01-16T05:29:40.345Z,0.85
2017-01-16T05:30:50.768Z,0.78
2017-01-16T05:32:01.568Z,0.67
2017-01-16T05:33:12.365Z,0.78
2017-01-16T05:34:23.146Z,0.67
2017-01-16T05:35:33.942Z,0.63
2017-01-16T05:36:44.345Z,0.63
2017-01-16T05:37:54.337Z,0.64
2017-01-16T05:39:04.729Z,0.75
2017-01-16T05:40:15.523Z,0.72
2017-01-16T05:41:25.914Z,0.74
2017-01-16T05:42:36.266Z,0.63
2017-01-16T05:43:46.221Z,0.72
2017-01-16T05:44:56.965Z,0.74
2017-01-16T05:46:06.920Z,0.67
2017-01-16T05:47:17.652Z,0.63
2017-01-16T05:48:27.997Z,0.69
2017-01-16T05:49:38.347Z,0.71
2017-01-16T05:50:49.083Z,0.58
2017-01-16T05:51:59.033Z,0.61
2017-01-16T05:53:08.976Z,0.45
2017-01-16T05:54:19.722Z,0.45
2017-01-16T05:55:30.474Z,0.39
2017-01-16T05:56:40.435Z,0.37
2017-01-16T05:57:51.185Z,0.37
2017-01-16T05:59:01.537Z,0.32
2017-01-16T06:00:12.260Z,0.24
2017-01-16T06:01:22.608Z,0.24
2017-01-16T06:02:32.164Z,0.24
2017-01-16T06:03:42.892Z,0.21
2017-01-16T06:04:53.223Z,0.21
2017-01-16T06:06:03.562Z,0.17
2017-01-16T06:07:14.326Z,0.16
2017-01-16T06:08:24.659Z,0.14
2017-01-16T06:09:35.402Z,0.16
2017-01-16T06:10:45.745Z,0.17
2017-01-16T06:11:56.482Z,0.17
2017-01-16T06:13:07.215Z,0.06
2017-01-16T06:14:17.936Z,0.08
2017-01-16T06:15:28.283Z,0.08
2017-01-16T06:16:38.250Z,0.1
2017-01-16T06:17:48.976Z,0.05
2017-01-16T06:18:58.948Z,0.08
2017-01-16T06:20:09.286Z,0.01
2017-01-16T06:21:19.627Z,0.03
2017-01-16T06:22:30.378Z,-0.01
2017-01-16T06:23:40.719Z,-0.02
2017-01-16T06:24:51.057Z,-0.04
2017-01-16T06:26:01.398Z,-0.1
2017-01-16T06:27:10.950Z,-0.05
2017-01-16T06:28:21.736Z,-0.04
2017-01-16T06:29:32.059Z,-0.1
2017-01-16T06:30:42.811Z,-0.09
2017-01-16T06:31:53.156Z,0.01
2017-01-16T06:33:03.485Z,-0.01
2017-01-16T06:34:14.216Z,0.02
2017-01-16T06:35:24.597Z,0.05
2017-01-16T06:36:35.355Z,-0.04
2017-01-16T06:37:45.691Z,-0.12
2017-01-16T06:38:56.047Z,-0.18
2017-01-16T06:40:06.788Z,-0.22
2017-01-16T06:41:17.567Z,-0.2
2017-01-16T06:42:27.914Z,-0.27
2017-01-16T06:43:38.646Z,-0.25
2017-01-16T06:44:49.366Z,-0.27
2017-01-16T06:45:59.705Z,-0.23
2017-01-16T06:47:10.475Z,-0.25
2017-01-16T06:48:21.211Z,-0.27
2017-01-16T06:49:31.962Z,-0.25
2017-01-16T06:50:42.702Z,-0.25
2017-01-16T06:51:53.063Z,-0.36
2017-01-16T06:53:03.820Z,-0.34
2017-01-16T06:54:14.155Z,-0.25
2017-01-16T06:55:24.520Z,-0.36
2017-01-16T06:56:35.267Z,-0.2
2017-01-16T06:57:46.000Z,-0.25
2017-01-16T06:58:56.335Z,-0.23
2017-01-16T07:00:06.683Z,-0.23
2017-01-16T07:01:17.419Z,-0.25
2017-01-16T07:02:28.197Z,-0.27
2017-01-16T07:03:38.158Z,-0.22
2017-01-16T07:04:48.509Z,-0.2
2017-01-16T07:05:58.460Z,-0.16
2017-01-16T07:07:09.200Z,-0.2
2017-01-16T07:08:19.555Z,-0.23
2017-01-16T07:09:29.920Z,-0.12
2017-01-16T07:10:40.258Z,-0.12
2017-01-16T07:11:50.599Z,-0.05
2017-01-16T07:13:00.942Z,0.06
2017-01-16T07:14:11.283Z,0.02
2017-01-16T07:15:21.638Z,0.06
2017-01-16T07:16:32.388Z,0.16
2017-01-16T07:17:42.725Z,0.2
2017-01-16T07:18:53.068Z,0.17
2017-01-16T07:20:03.420Z,0.17
2017-01-16T07:21:13.763Z,0.32
2017-01-16T07:22:24.095Z,0.28
2017-01-16T07:23:34.856Z,0.28
2017-01-16T07:24:45.204Z,0.38
2017-01-16T07:25:55.156Z,0.39
2017-01-16T07:27:05.909Z,0.44
2017-01-16T07:28:16.250Z,0.41
2017-01-16T07:29:25.404Z,0.47
2017-01-16T07:30:35.738Z,0.47
2017-01-16T07:31:46.498Z,0.61
2017-01-16T07:32:56.857Z,0.57
2017-01-16T07:34:07.251Z,0.72
2017-01-16T07:35:17.600Z,0.81
2017-01-16T07:36:27.553Z,0.85
2017-01-16T07:37:38.306Z,0.99
2017-01-16T07:38:48.662Z,1.02
2017-01-16T07:39:59.408Z,1.17
2017-01-16T07:41:10.141Z,1.18
2017-01-16T07:42:20.086Z,1.12
2017-01-16T07:43:30.830Z,1.3
2017-01-16T07:44:40.776Z,1.3
2017-01-16T07:45:51.111Z,1.42
2017-01-16T07:47:01.080Z,1.53
2017-01-16T07:48:11.061Z,1.58
2017-01-16T07:49:21.032Z,1.83
2017-01-16T07:50:30.975Z,1.78
2017-01-16T07:51:41.324Z,1.72
2017-01-16T07:52:52.068Z,1.84
2017-01-16T07:54:02.819Z,1.97
2017-01-16T07:55:13.161Z,1.98
2017-01-16T07:56:23.898Z,2.15
2017-01-16T07:57:34.253Z,2.2
2017-01-16T07:58:44.994Z,2.33
2017-01-16T07:59:54.961Z,2.38
2017-01-16T08:01:05.724Z,2.45
2017-01-16T08:02:16.455Z,2.6
2017-01-16T08:03:26.402Z,2.76
2017-01-16T08:04:36.739Z,2.87
2017-01-16T08:05:47.470Z,3.01
2017-01-16T08:06:58.057Z,3.29
2017-01-16T08:08:08.802Z,3.43
2017-01-16T08:09:18.740Z,3.53
2017-01-16T08:10:28.697Z,3.61
2017-01-16T08:11:39.059Z,3.84
2017-01-16T08:12:49.416Z,4.1
2017-01-16T08:14:00.171Z,3.93
2017-01-16T08:15:10.904Z,3.93
2017-01-16T08:16:21.648Z,3.86
2017-01-16T08:17:32.396Z,3.67
2017-01-16T08:18:42.367Z,3.69
2017-01-16T08:19:53.108Z,3.57
2017-01-16T08:21:03.460Z,3.56
2017-01-16T08:22:14.199Z,3.43
2017-01-16T08:23:24.943Z,3.46
2017-01-16T08:24:35.292Z,3.39
2017-01-16T08:25:46.026Z,3.37
2017-01-16T08:26:56.394Z,3.32
2017-01-16T08:28:06.777Z,3.23
2017-01-16T08:29:17.522Z,3.14
2017-01-16T08:30:28.263Z,3.14
2017-01-16T08:31:38.620Z,3.14
2017-01-16T08:32:48.198Z,3.13
2017-01-16T08:33:58.985Z,3.23
2017-01-16T08:35:09.331Z,3.3
2017-01-16T08:36:20.055Z,3.3
2017-01-16T08:37:30.014Z,3.42
2017-01-16T08:38:40.760Z,3.49
2017-01-16T08:39:51.502Z,3.6
2017-01-16T08:41:02.241Z,3.64
2017-01-16T08:42:12.986Z,3.6
2017-01-16T08:43:23.313Z,3.66
2017-01-16T08:44:33.656Z,3.84
2017-01-16T08:45:44.392Z,3.92
2017-01-16T08:46:54.741Z,4.08
2017-01-16T08:48:05.486Z,4.18
2017-01-16T08:49:15.436Z,4.18
2017-01-16T08:50:25.787Z,4.24
2017-01-16T08:51:36.133Z,4.3
2017-01-16T08:52:46.491Z,4.35
2017-01-16T08:53:56.849Z,4.47
2017-01-16T08:55:06.810Z,4.76
2017-01-16T08:56:17.542Z,5.03
2017-01-16T08:57:27.887Z,5.09
2017-01-16T08:58:38.244Z,5.06
2017-01-16T08:59:48.608Z,5
2017-01-16T09:00:59.345Z,5
2017-01-16T09:02:09.295Z,4.84
2017-01-16T09:03:19.634Z,4.79
2017-01-16T09:04:30.369Z,4.75
2017-01-16T09:05:40.713Z,4.71
2017-01-16T09:06:51.482Z,4.54
2017-01-16T09:08:02.225Z,4.5
2017-01-16T09:09:12.172Z,4.47
2017-01-16T09:10:22.520Z,4.42
2017-01-16T09:11:33.259Z,4.5
2017-01-16T09:12:44.001Z,4.5
2017-01-16T09:13:53.969Z,4.5
2017-01-16T09:15:04.713Z,4.53
2017-01-16T09:16:15.468Z,4.54
2017-01-16T09:17:26.206Z,4.53
2017-01-16T09:18:36.187Z,4.66
2017-01-16T09:19:46.922Z,4.57
2017-01-16T09:20:57.664Z,4.51
2017-01-16T09:22:07.601Z,4.42
2017-01-16T09:23:17.952Z,4.36
2017-01-16T09:24:28.926Z,4.3
2017-01-16T09:25:38.901Z,4.44
2017-01-16T09:26:49.288Z,4.39
2017-01-16T09:27:59.644Z,4.46
2017-01-16T09:29:09.987Z,4.51
2017-01-16T09:30:19.952Z,4.51
2017-01-16T09:31:30.303Z,4.64
2017-01-16T09:32:40.651Z,4.66
2017-01-16T09:33:51.399Z,4.74
2017-01-16T09:35:01.758Z,4.83
2017-01-16T09:36:12.109Z,4.83
2017-01-16T09:37:22.860Z,4.75
2017-01-16T09:38:33.231Z,4.84
2017-01-16T09:39:43.588Z,4.88
2017-01-16T09:40:53.534Z,4.84
2017-01-16T09:42:03.871Z,4.97
2017-01-16T09:43:13.837Z,5.02
2017-01-16T09:44:24.180Z,5.06
2017-01-16T09:45:34.526Z,5.05
2017-01-16T09:46:45.289Z,5.09
2017-01-16T09:47:56.066Z,5.08
2017-01-16T09:49:06.438Z,5.02
2017-01-16T09:50:16.830Z,5
2017-01-16T09:51:27.168Z,4.97
2017-01-16T09:52:37.108Z,4.97
2017-01-16T09:53:47.842Z,5.02
2017-01-16T09:54:58.198Z,4.95
2017-01-16T09:56:08.554Z,5.12
2017-01-16T09:57:18.892Z,5.2
2017-01-16T09:58:29.241Z,5.15
2017-01-16T09:59:40.004Z,5.16
2017-01-16T10:00:50.365Z,5.21
2017-01-16T10:02:01.118Z,5.2
2017-01-16T10:03:11.479Z,5.24
2017-01-16T10:04:22.220Z,5.12
2017-01-16T10:05:32.574Z,5.12
2017-01-16T10:06:43.315Z,5.1
2017-01-16T10:07:52.862Z,5.1
2017-01-16T10:09:02.812Z,5.16
2017-01-16T10:10:13.580Z,5.37
2017-01-16T10:11:23.948Z,5.45
2017-01-16T10:12:33.909Z,5.62
2017-01-16T10:13:44.677Z,5.72
2017-01-16T10:14:54.631Z,5.59
2017-01-16T10:16:04.194Z,5.57
2017-01-16T10:17:14.951Z,5.33
2017-01-16T10:18:25.688Z,5.54
2017-01-16T10:19:36.431Z,5.48
2017-01-16T10:20:47.182Z,5.59
2017-01-16T10:21:57.533Z,5.57
2017-01-16T10:23:08.290Z,5.48
2017-01-16T10:24:17.522Z,5.42
2017-01-16T10:25:28.273Z,5.59
2017-01-16T10:26:38.624Z,5.77
2017-01-16T10:27:49.387Z,6.02
2017-01-16T10:28:59.739Z,6.15
2017-01-16T10:30:10.085Z,5.98
2017-01-16T10:31:20.832Z,6.05
2017-01-16T10:32:30.777Z,6.03
2017-01-16T10:33:41.522Z,6.26
2017-01-16T10:34:51.887Z,6.17
2017-01-16T10:36:01.854Z,6.13
2017-01-16T10:37:12.620Z,6.14
2017-01-16T10:38:23.377Z,6.46
2017-01-16T10:39:33.324Z,6.62
2017-01-16T10:40:43.681Z,6.8
2017-01-16T10:41:54.435Z,6.97
2017-01-16T10:43:04.807Z,7.11
2017-01-16T10:44:15.147Z,7.15
2017-01-16T10:45:25.508Z,7.13
2017-01-16T10:46:35.887Z,7.12
2017-01-16T10:47:46.631Z,6.9
2017-01-16T10:48:57.378Z,6.91
2017-01-16T10:50:08.139Z,6.7
2017-01-16T10:51:18.473Z,6.72
2017-01-16T10:52:29.229Z,6.61
2017-01-16T10:53:39.966Z,6.64
2017-01-16T10:54:50.317Z,6.6
2017-01-16T10:56:00.673Z,6.47
2017-01-16T10:57:11.417Z,6.4
2017-01-16T10:58:21.773Z,6.26
2017-01-16T10:59:32.156Z,6.07
2017-01-16T11:00:42.500Z,5.91
2017-01-16T11:01:53.238Z,5.8
2017-01-16T11:03:03.970Z,5.67
2017-01-16T11:04:14.340Z,5.64
2017-01-16T11:05:25.091Z,5.6
2017-01-16T11:06:35.450Z,5.66
2017-01-16T11:07:46.200Z,5.82
2017-01-16T11:08:56.972Z,5.84
2017-01-16T11:10:07.710Z,5.87
2017-01-16T11:11:17.661Z,6.28
2017-01-16T11:12:27.612Z,6.55
2017-01-16T11:13:37.990Z,6.62
2017-01-16T11:14:48.356Z,6.97
2017-01-16T11:15:58.549Z,7.39
2017-01-16T11:17:09.288Z,7.63
2017-01-16T11:18:19.641Z,7.82
2017-01-16T11:19:29.997Z,7.56
2017-01-16T11:20:40.354Z,7.29
2017-01-16T11:21:50.702Z,7.09
2017-01-16T11:23:01.446Z,6.86
2017-01-16T11:24:12.183Z,6.62
2017-01-16T11:25:22.941Z,6.51
2017-01-16T11:26:33.683Z,6.39
2017-01-16T11:27:44.039Z,6.29
2017-01-16T11:28:54.802Z,6.43
2017-01-16T11:30:04.747Z,6.52
2017-01-16T11:31:15.509Z,6.39
2017-01-16T11:32:25.861Z,6.15
2017-01-16T11:33:36.231Z,5.98
2017-01-16T11:34:46.198Z,5.88
2017-01-16T11:35:56.946Z,5.84
2017-01-16T11:37:07.292Z,5.66
2017-01-16T11:38:18.039Z,5.59
2017-01-16T11:39:28.427Z,5.42
2017-01-16T11:40:38.767Z,5.37
2017-01-16T11:41:49.148Z,5.37
2017-01-16T11:42:59.890Z,5.31
2017-01-16T11:44:10.261Z,5.42
2017-01-16T11:45:20.619Z,5.36
2017-01-16T11:46:30.565Z,5.23
2017-01-16T11:47:40.937Z,5.34
2017-01-16T11:48:51.273Z,5.37
2017-01-16T11:50:02.037Z,5.42
2017-01-16T11:51:12.380Z,5.42
2017-01-16T11:52:22.733Z,5.31
2017-01-16T11:53:33.504Z,5.36
2017-01-16T11:54:44.242Z,5.39
2017-01-16T11:55:54.994Z,5.33
2017-01-16T11:57:05.345Z,5.3
2017-01-16T11:58:16.082Z,5.42
2017-01-16T11:59:26.832Z,5.64
2017-01-16T12:00:37.580Z,5.62
2017-01-16T12:01:47.936Z,5.57
2017-01-16T12:02:58.299Z,5.48
2017-01-16T12:04:08.664Z,5.54
2017-01-16T12:05:19.045Z,5.51
2017-01-16T12:06:29.782Z,5.69
2017-01-16T12:07:40.130Z,5.8
2017-01-16T12:08:50.471Z,5.77
2017-01-16T12:10:00.842Z,5.73
2017-01-16T12:11:11.199Z,5.63
2017-01-16T12:12:21.925Z,5.6
2017-01-16T12:13:32.656Z,5.78
2017-01-16T12:14:43.243Z,5.78
2017-01-16T12:15:53.579Z,5.63
2017-01-16T12:17:03.926Z,5.48
2017-01-16T12:18:13.883Z,5.36
2017-01-16T12:19:23.864Z,5.3
2017-01-16T12:20:34.220Z,5.34
2017-01-16T12:21:44.944Z,5.42
2017-01-16T12:22:55.308Z,5.6
2017-01-16T12:24:05.651Z,5.66
2017-01-16T12:25:16.392Z,5.73
2017-01-16T12:26:26.359Z,5.8
2017-01-16T12:27:36.317Z,5.8
2017-01-16T12:28:47.080Z,5.8
2017-01-16T12:29:57.425Z,5.89
2017-01-16T12:31:06.985Z,5.92
2017-01-16T12:32:17.731Z,6.1
2017-01-16T12:33:28.468Z,6.21
2017-01-16T12:34:38.436Z,6.31
2017-01-16T12:35:48.780Z,6.47
2017-01-16T12:36:59.131Z,6.78
2017-01-16T12:38:09.474Z,6.9
2017-01-16T12:39:20.250Z,7.03
2017-01-16T12:40:29.797Z,6.82
2017-01-16T12:41:40.147Z,6.72
2017-01-16T12:42:50.518Z,6.7
2017-01-16T12:44:01.522Z,6.65
2017-01-16T12:45:12.284Z,6.61
2017-01-16T12:46:22.640Z,6.64
2017-01-16T12:47:33.417Z,6.62
2017-01-16T12:48:43.744Z,6.7
2017-01-16T12:49:53.694Z,6.72
2017-01-16T12:51:03.636Z,6.68
2017-01-16T12:52:13.992Z,6.49
2017-01-16T12:53:23.965Z,6.55
2017-01-16T12:54:34.307Z,6.44
2017-01-16T12:55:45.071Z,6.46
2017-01-16T12:56:55.835Z,6.47
2017-01-16T12:58:05.406Z,6.47
2017-01-16T12:59:16.147Z,6.51
2017-01-16T13:00:26.495Z,6.52
2017-01-16T13:01:37.236Z,6.72
2017-01-16T13:02:47.997Z,6.75
2017-01-16T13:03:57.960Z,6.85
2017-01-16T13:05:08.327Z,7.03
2017-01-16T13:06:18.333Z,7.13
2017-01-16T13:07:28.687Z,7.08
2017-01-16T13:08:38.633Z,7.09
2017-01-16T13:09:48.998Z,6.94
2017-01-16T13:10:59.374Z,7.05
2017-01-16T13:12:09.726Z,7
2017-01-16T13:13:20.460Z,6.98
2017-01-16T13:14:30.820Z,6.82
2017-01-16T13:15:40.772Z,6.73
2017-01-16T13:16:51.154Z,6.7
2017-01-16T13:18:01.935Z,6.67
2017-01-16T13:19:12.297Z,6.68
2017-01-16T13:20:22.675Z,6.73
2017-01-16T13:21:33.450Z,6.73
2017-01-16T13:22:43.813Z,6.73
2017-01-16T13:23:54.163Z,6.76
2017-01-16T13:25:04.525Z,6.83
2017-01-16T13:26:15.289Z,6.8
2017-01-16T13:27:25.645Z,6.76
2017-01-16T13:28:36.402Z,6.9
2017-01-16T13:29:47.158Z,6.9
2017-01-16T13:30:57.906Z,6.98
2017-01-16T13:32:08.668Z,7.01
2017-01-16T13:33:18.635Z,7
2017-01-16T13:34:28.982Z,6.95
2017-01-16T13:35:39.324Z,6.91
2017-01-16T13:36:49.275Z,6.91
2017-01-16T13:37:59.622Z,6.85
2017-01-16T13:39:10.355Z,6.88
2017-01-16T13:40:21.103Z,6.91
2017-01-16T13:41:31.454Z,6.8
2017-01-16T13:42:41.019Z,6.76
2017-01-16T13:43:51.807Z,6.7
2017-01-16T13:45:02.543Z,6.57
2017-01-16T13:46:13.294Z,6.46
2017-01-16T13:47:23.648Z,6.42
2017-01-16T13:48:33.993Z,6.44
2017-01-16T13:49:44.360Z,6.44
2017-01-16T13:50:53.924Z,6.4
2017-01-16T13:52:04.669Z,6.33
2017-01-16T13:53:14.660Z,6.21
2017-01-16T13:54:25.403Z,6.21
2017-01-16T13:55:35.375Z,6.13
2017-01-16T13:56:46.113Z,6.02
2017-01-16T13:57:56.859Z,5.8
2017-01-16T13:59:07.622Z,5.77
2017-01-16T14:00:17.978Z,5.72
2017-01-16T14:01:28.363Z,5.59
2017-01-16T14:02:39.116Z,5.57
2017-01-16T14:03:49.458Z,5.51
2017-01-16T14:04:59.820Z,5.48
2017-01-16T14:06:10.587Z,5.49
2017-01-16T14:07:20.582Z,5.49
2017-01-16T14:08:30.934Z,5.46
2017-01-16T14:09:41.673Z,5.44
2017-01-16T14:10:52.010Z,5.31
2017-01-16T14:12:01.576Z,5.33
2017-01-16T14:13:11.572Z,5.26
2017-01-16T14:14:22.357Z,5.27
2017-01-16T14:15:32.751Z,5.13
2017-01-16T14:16:43.504Z,5.08
2017-01-16T14:17:53.460Z,5.15
2017-01-16T14:19:04.214Z,5.12
2017-01-16T14:20:14.559Z,5.12
2017-01-16T14:21:25.312Z,4.95
2017-01-16T14:22:35.669Z,4.97
2017-01-16T14:23:46.029Z,5.09
2017-01-16T14:24:56.761Z,4.97
2017-01-16T14:26:07.536Z,4.94
2017-01-16T14:27:18.290Z,5
2017-01-16T14:28:28.632Z,4.94
2017-01-16T14:29:39.374Z,4.9
2017-01-16T14:30:49.715Z,4.79
2017-01-16T14:32:00.444Z,4.83
2017-01-16T14:33:10.824Z,4.78
2017-01-16T14:34:21.194Z,4.74
2017-01-16T14:35:31.563Z,4.78
2017-01-16T14:36:42.324Z,4.76
2017-01-16T14:37:53.137Z,4.83
2017-01-16T14:39:03.582Z,4.74
2017-01-16T14:40:13.973Z,4.71
2017-01-16T14:41:24.777Z,4.74
2017-01-16T14:42:35.576Z,4.66
2017-01-16T14:43:45.970Z,4.58
2017-01-16T14:44:56.384Z,4.53
2017-01-16T14:46:06.389Z,4.54
2017-01-16T14:47:16.821Z,4.48
2017-01-16T14:48:27.636Z,4.5
2017-01-16T14:49:38.418Z,4.46
2017-01-16T14:50:49.215Z,4.47
2017-01-16T14:52:00.034Z,4.48
2017-01-16T14:53:10.425Z,4.36
2017-01-16T14:54:20.412Z,4.35
2017-01-16T14:55:30.788Z,4.2
2017-01-16T14:56:41.152Z,4.24
2017-01-16T14:57:51.945Z,4.14
2017-01-16T14:59:02.300Z,4.18
2017-01-16T15:00:12.666Z,4.12
2017-01-16T15:01:22.997Z,4.1
2017-01-16T15:02:32.569Z,4
2017-01-16T15:03:43.354Z,4.03
2017-01-16T15:04:53.318Z,3.94
2017-01-16T15:06:03.679Z,4.02
2017-01-16T15:07:14.041Z,3.93
2017-01-16T15:08:24.400Z,3.86
2017-01-16T15:09:35.199Z,3.92
2017-01-16T15:10:45.963Z,3.81
2017-01-16T15:11:56.729Z,3.72
2017-01-16T15:13:07.483Z,3.72
2017-01-16T15:14:17.438Z,3.79
2017-01-16T15:15:27.825Z,3.58
2017-01-16T15:16:38.569Z,3.61
2017-01-16T15:17:48.910Z,3.63
2017-01-16T15:18:59.285Z,3.64
2017-01-16T15:20:09.651Z,3.64
2017-01-16T15:21:20.043Z,3.58
2017-01-16T15:22:30.806Z,3.56
2017-01-16T15:23:41.571Z,3.48
2017-01-16T15:24:51.939Z,3.58
2017-01-16T15:26:02.688Z,3.57
2017-01-16T15:27:13.450Z,3.6
2017-01-16T15:28:23.793Z,3.54
2017-01-16T15:29:33.785Z,3.56
2017-01-16T15:30:44.545Z,3.51
2017-01-16T15:31:55.288Z,3.51
2017-01-16T15:33:05.245Z,3.48
2017-01-16T15:34:15.636Z,3.45
2017-01-16T15:35:26.383Z,3.4
2017-01-16T15:36:36.750Z,3.39
2017-01-16T15:37:46.721Z,3.3
2017-01-16T15:38:56.677Z,3.32
2017-01-16T15:40:07.042Z,3.3
2017-01-16T15:41:17.416Z,3.3
2017-01-16T15:42:27.761Z,3.3
2017-01-16T15:43:38.126Z,3.35
2017-01-16T15:44:48.502Z,3.3
2017-01-16T15:45:58.919Z,3.29
2017-01-16T15:47:09.294Z,3.34
2017-01-16T15:48:19.660Z,3.42
2017-01-16T15:49:30.414Z,3.21
2017-01-16T15:50:41.166Z,3.27
2017-01-16T15:51:51.513Z,3.37
2017-01-16T15:53:02.255Z,3.32
2017-01-16T15:54:12.616Z,3.17
2017-01-16T15:55:22.982Z,3.24
2017-01-16T15:56:33.335Z,3.3
2017-01-16T15:57:43.297Z,3.23
2017-01-16T15:58:54.088Z,3.23
2017-01-16T16:00:04.855Z,3.26
2017-01-16T16:01:15.219Z,3.19
2017-01-16T16:02:25.978Z,3.13
2017-01-16T16:03:36.349Z,3.19
2017-01-16T16:04:47.136Z,3.16
2017-01-16T16:05:57.499Z,3.14
2017-01-16T16:07:08.274Z,3.16
2017-01-16T16:08:18.625Z,3.09
2017-01-16T16:09:29.024Z,3.11